Saint Eustatius, St. Eustatius

12:11 PM AST on May 23, 2015 (GMT -0400)
IDUTCHCA4 | | Change Station
CLOSE
Current Station
Personal Weather Station
Location: Oranjestad, DUTCH CARIBBEAN
Elevation: 575 ft
Nearby Weather Stations

Elev 575 ft 17.48 °N, 62.97 °W | Updated 1 minute ago

Mostly Cloudy
Mostly Cloudy
82.9 °F
Feels Like 89 °F
N
6.0
Wind Variable Wind from East

Today
High -- | Low -- °F
--% Chance of Precip.
Yesterday
High -- | Low -- °F
Precip. -- in
5:37 AM 6:39 PM
Waxing Crescent, 31% visible
Pressure 30.09 in
Visibility 6.2 miles
Clouds Mostly Cloudy 2000 ft
Heat Index 89 °F
Dew Point 73 °F
Humidity 73%
Rainfall 0.00 in
Snow Depth Not available.
UV 3.9 out of 12
Pollen Not available.
Air Quality Not available.
Flu Activity Not available.
METAR TKPN 231600Z 11009KT 9999 BKN020 28/22 Q1019

More Conditions Fewer Conditions

Pressure 30.09 in
Visibility 6.2 miles
Clouds Mostly Cloudy 2000 ft
Heat Index 89 °F
Dew Point 73 °F
Humidity 73%
Rainfall 0.00 in
Snow Depth Not available.
UV 3.9 out of 12
Pollen Not available.
Air Quality Not available.
Flu Activity Not available.
METAR TKPN 231600Z 11009KT 9999 BKN020 28/22 Q1019

More Conditions Fewer Conditions

10-Day Weather Forecast

Almanac

Astronomy

May. 23, 2015 Rise Set
Actual Time
Civil Twilight
Nautical Twilight
Astronomical Twilight
Moon
Length of Visible Light
Length of Day
Tomorrow will be .
, % of the Moon is Illuminated

Today's Extremes

Country Highs Country Lows

Community

WunderPhotos

Upload Photos

1,823,512 photos uploaded!

WunderBlogs® & News

Nearby

Air Quality

  Air Quality AQ Index Pollutant
Not available.

Snow Depth

Station Depth Elevation

Earthquake Activity

City Distance Mag. Time & Date
Minimum magnitude displayed is 2.5.

Coastal Water Temperatures

Place Temperature

Stations

Nearby Weather Stations

Station Location Temp. Windchill Dew Point Humidity Wind Precip. Elev Updated Type